createdAt,value
2018-12-04T00:01:00.530Z,10.80
2018-12-04T00:03:34.779Z,10.90
2018-12-04T00:06:08.587Z,10.90
2018-12-04T00:08:38.067Z,10.80
2018-12-04T00:11:09.958Z,10.90
2018-12-04T00:13:41.246Z,11.00
2018-12-04T00:16:11.474Z,11.00
2018-12-04T00:18:45.773Z,11.10
2018-12-04T00:21:17.470Z,11.10
2018-12-04T00:23:52.102Z,11.10
2018-12-04T00:26:23.299Z,11.10
2018-12-04T00:28:56.912Z,11.10
2018-12-04T00:31:29.460Z,11.00
2018-12-04T00:34:03.794Z,11.10
2018-12-04T00:36:35.647Z,11.10
2018-12-04T00:39:06.948Z,11.00
2018-12-04T00:41:38.740Z,11.10
2018-12-04T00:44:08.847Z,11.10
2018-12-04T00:46:42.598Z,11.00
2018-12-04T00:49:16.535Z,11.00
2018-12-04T00:51:47.898Z,11.00
2018-12-04T00:54:17.882Z,11.10
2018-12-04T00:56:49.422Z,11.10
2018-12-04T00:59:21.461Z,11.10
2018-12-04T01:01:53.547Z,11.10
2018-12-04T01:04:23.398Z,11.20
2018-12-04T01:06:57.167Z,11.20
2018-12-04T01:09:28.967Z,11.20
2018-12-04T01:12:01.108Z,11.20
2018-12-04T01:14:33.305Z,11.10
2018-12-04T01:17:07.016Z,11.20
2018-12-04T01:19:40.995Z,11.20
2018-12-04T01:22:15.198Z,11.20
2018-12-04T01:24:48.301Z,11.20
2018-12-04T01:27:22.428Z,11.20
2018-12-04T01:29:51.808Z,11.20
2018-12-04T01:32:27.383Z,11.20
2018-12-04T01:35:01.200Z,11.10
2018-12-04T01:37:31.200Z,11.10
2018-12-04T01:40:03.710Z,11.10
2018-12-04T01:42:36.364Z,11.10
2018-12-04T01:45:11.659Z,11.10
2018-12-04T01:47:42.848Z,11.00
2018-12-04T01:50:16.537Z,11.00
2018-12-04T01:52:47.993Z,11.00
2018-12-04T01:55:22.525Z,11.00
2018-12-04T01:57:54.333Z,11.00
2018-12-04T02:00:28.061Z,11.00
2018-12-04T02:02:59.678Z,11.00
2018-12-04T02:05:33.877Z,11.00
2018-12-04T02:08:08.055Z,11.00
2018-12-04T02:10:39.637Z,11.00
2018-12-04T02:13:14.650Z,11.00
2018-12-04T02:15:46.981Z,11.00
2018-12-04T02:18:20.738Z,11.00
2018-12-04T02:20:52.258Z,11.00
2018-12-04T02:23:24.135Z,11.00
2018-12-04T02:25:56.023Z,10.90
2018-12-04T02:28:29.579Z,10.80
2018-12-04T02:31:01.183Z,10.80
2018-12-04T02:33:36.006Z,10.80
2018-12-04T02:36:10.112Z,10.90
2018-12-04T02:38:41.746Z,10.90
2018-12-04T02:41:16.231Z,10.80
2018-12-04T02:43:47.593Z,10.90
2018-12-04T02:46:22.070Z,10.90
2018-12-04T02:48:53.878Z,10.90
2018-12-04T02:51:28.206Z,11.00
2018-12-04T02:53:59.409Z,11.00
2018-12-04T02:56:33.770Z,11.00
2018-12-04T02:59:05.409Z,11.00
2018-12-04T03:01:39.752Z,11.00
2018-12-04T03:04:11.295Z,10.90
2018-12-04T03:06:41.124Z,11.00
2018-12-04T03:09:14.762Z,11.00
2018-12-04T03:11:48.544Z,11.00
2018-12-04T03:14:20.045Z,11.00
2018-12-04T03:16:49.277Z,11.00
2018-12-04T03:19:20.904Z,11.00
2018-12-04T03:21:49.328Z,11.00
2018-12-04T03:24:21.210Z,11.00
2018-12-04T03:26:49.401Z,11.00
2018-12-04T03:29:17.816Z,11.00
2018-12-04T03:31:51.908Z,11.00
2018-12-04T03:34:20.108Z,11.00
2018-12-04T03:36:49.901Z,11.00
2018-12-04T03:39:21.630Z,11.00
2018-12-04T03:41:50.054Z,11.00
2018-12-04T03:44:19.817Z,11.00
2018-12-04T03:46:52.629Z,10.90
2018-12-04T03:49:20.875Z,11.00
2018-12-04T03:51:52.483Z,11.00
2018-12-04T03:54:26.799Z,10.90
2018-12-04T03:57:00.670Z,11.00
2018-12-04T03:59:32.163Z,11.00
2018-12-04T04:05:08.623Z,11.00
2018-12-04T04:07:36.768Z,11.00
2018-12-04T04:10:06.179Z,10.90
2018-12-04T04:12:34.274Z,10.90
2018-12-04T04:15:08.989Z,10.90
2018-12-04T04:17:43.564Z,10.90
2018-12-04T04:20:12.313Z,10.90
2018-12-04T04:22:42.344Z,10.90
2018-12-04T04:25:13.632Z,10.90
2018-12-04T04:27:45.135Z,10.80
2018-12-04T04:30:19.717Z,10.80
2018-12-04T04:32:51.232Z,10.80
2018-12-04T04:35:25.787Z,10.80
2018-12-04T04:37:57.481Z,10.80
2018-12-04T04:40:29.238Z,10.70
2018-12-04T04:42:59.302Z,10.70
2018-12-04T04:45:29.359Z,10.70
2018-12-04T04:48:02.979Z,10.60
2018-12-04T04:53:30.641Z,10.60
2018-12-04T04:55:58.787Z,10.60
2018-12-04T04:58:26.872Z,10.60
2018-12-04T05:00:54.979Z,10.50
2018-12-04T05:03:23.176Z,10.50
2018-12-04T05:05:51.369Z,10.50
2018-12-04T05:08:19.430Z,10.40
2018-12-04T05:10:47.636Z,10.20
2018-12-04T05:13:15.925Z,10.40
2018-12-04T05:15:44.021Z,10.40
2018-12-04T05:18:21.604Z,10.40
2018-12-04T05:20:49.673Z,10.40
2018-12-04T05:23:18.032Z,10.30
2018-12-04T05:25:46.136Z,10.30
2018-12-04T05:28:14.380Z,10.30
2018-12-04T05:30:44.106Z,10.30
2018-12-04T05:33:12.341Z,10.30
2018-12-04T05:35:40.615Z,10.30
2018-12-04T05:38:08.874Z,10.10
2018-12-04T05:40:38.372Z,10.20
2018-12-04T05:43:12.393Z,10.10
2018-12-04T05:45:42.018Z,10.00
2018-12-04T05:48:14.877Z,10.00
2018-12-04T05:50:49.608Z,9.90
2018-12-04T05:53:33.316Z,9.80
2018-12-04T05:56:04.741Z,9.70
2018-12-04T05:58:36.121Z,9.60
2018-12-04T06:01:04.351Z,9.60
2018-12-04T06:03:38.627Z,9.50
2018-12-04T06:06:06.873Z,9.50
2018-12-04T06:08:35.219Z,9.40
2018-12-04T06:11:03.565Z,9.40
2018-12-04T06:13:31.730Z,8.80
2018-12-04T06:15:59.920Z,9.10
2018-12-04T06:18:28.143Z,9.10
2018-12-04T06:20:56.244Z,9.10
2018-12-04T06:23:24.371Z,9.10
2018-12-04T06:28:59.030Z,9.10
2018-12-04T06:31:28.642Z,9.00
2018-12-04T06:33:56.798Z,9.00
2018-12-04T06:36:37.612Z,8.40
2018-12-04T06:39:12.353Z,9.00
2018-12-04T06:41:46.237Z,9.00
2018-12-04T06:44:20.201Z,8.90
2018-12-04T06:46:51.631Z,8.90
2018-12-04T06:49:25.486Z,8.90
2018-12-04T06:52:00.130Z,8.90
2018-12-04T06:54:34.149Z,8.80
2018-12-04T06:57:15.024Z,8.90
2018-12-04T06:59:46.801Z,8.90
2018-12-04T07:02:21.393Z,8.80
2018-12-04T07:04:49.475Z,8.80
2018-12-04T07:07:21.864Z,8.80
2018-12-04T07:09:53.243Z,8.70
2018-12-04T07:12:25.026Z,8.80
2018-12-04T07:14:58.984Z,8.70
2018-12-04T07:17:27.153Z,8.80
2018-12-04T07:19:55.267Z,8.70
2018-12-04T07:22:37.161Z,8.80
2018-12-04T07:25:17.837Z,8.80
2018-12-04T07:27:49.484Z,8.70
2018-12-04T07:30:23.652Z,8.80
2018-12-04T07:32:53.345Z,8.80
2018-12-04T07:35:25.137Z,8.80
2018-12-04T07:37:53.276Z,8.80
2018-12-04T07:40:21.436Z,8.80
2018-12-04T07:42:49.542Z,8.80
2018-12-04T07:45:19.643Z,8.40
2018-12-04T07:47:51.014Z,8.80
2018-12-04T07:50:19.126Z,8.90
2018-12-04T07:52:47.224Z,8.90
2018-12-04T07:55:21.559Z,8.90
2018-12-04T07:57:55.448Z,8.90
2018-12-04T08:00:23.610Z,8.90
2018-12-04T08:02:51.783Z,8.90
2018-12-04T08:07:57.525Z,8.40
2018-12-04T08:10:25.679Z,9.00
2018-12-04T08:13:12.942Z,9.00
2018-12-04T08:15:46.949Z,9.00
2018-12-04T08:18:18.158Z,9.10
2018-12-04T08:20:46.288Z,9.20
2018-12-04T08:23:14.431Z,9.20
2018-12-04T08:25:42.597Z,8.80
2018-12-04T08:28:15.729Z,9.00
2018-12-04T08:30:43.930Z,9.40
2018-12-04T08:33:12.019Z,9.30
2018-12-04T08:35:40.138Z,9.40
2018-12-04T08:38:08.296Z,9.40
2018-12-04T08:40:36.418Z,9.20
2018-12-04T08:43:04.615Z,9.30
2018-12-04T08:45:32.723Z,9.30
2018-12-04T08:48:04.627Z,9.30
2018-12-04T08:53:35.923Z,9.40
2018-12-04T08:56:16.657Z,9.40
2018-12-04T08:58:44.857Z,9.40
2018-12-04T09:01:13.580Z,9.30
2018-12-04T09:03:41.719Z,9.50
2018-12-04T09:08:42.666Z,9.50
2018-12-04T09:11:17.175Z,9.50
2018-12-04T09:13:49.095Z,9.50
2018-12-04T09:16:23.486Z,9.40
2018-12-04T09:18:58.554Z,9.40
2018-12-04T09:21:29.096Z,9.40
2018-12-04T09:24:00.719Z,9.40
2018-12-04T09:26:32.980Z,9.30
2018-12-04T09:29:06.528Z,9.30
2018-12-04T09:31:37.857Z,9.20
2018-12-04T09:34:05.926Z,9.10
2018-12-04T09:36:40.156Z,9.20
2018-12-04T09:39:11.981Z,9.40
2018-12-04T09:41:43.439Z,9.60
2018-12-04T09:44:14.832Z,9.60
2018-12-04T09:46:48.470Z,9.80
2018-12-04T09:49:23.613Z,9.90
2018-12-04T09:51:55.324Z,9.90
2018-12-04T09:54:27.333Z,9.70
2018-12-04T09:56:58.890Z,9.70
2018-12-04T09:59:30.379Z,9.70
2018-12-04T10:02:01.577Z,9.60
2018-12-04T10:04:33.713Z,9.60
2018-12-04T10:12:02.340Z,9.50
2018-12-04T10:14:37.543Z,9.50
2018-12-04T10:17:09.620Z,9.50
2018-12-04T10:19:41.631Z,9.50
2018-12-04T10:22:16.078Z,9.60
2018-12-04T10:24:47.655Z,9.60
2018-12-04T10:27:17.931Z,9.60
2018-12-04T10:29:51.632Z,9.90
2018-12-04T10:32:26.009Z,10.00
2018-12-04T10:34:57.584Z,10.30
2018-12-04T10:37:40.064Z,10.50
2018-12-04T10:40:09.153Z,10.60
2018-12-04T10:42:40.753Z,10.60
2018-12-04T10:45:14.785Z,10.80
2018-12-04T10:47:44.896Z,10.90
2018-12-04T10:50:17.108Z,11.00
2018-12-04T10:52:48.248Z,11.20
2018-12-04T10:55:19.629Z,11.00
2018-12-04T10:57:47.794Z,10.80
2018-12-04T11:00:21.582Z,10.70
2018-12-04T11:05:54.224Z,10.40
2018-12-04T11:08:22.632Z,10.40
2018-12-04T11:13:59.233Z,10.30
2018-12-04T11:16:37.100Z,10.20
2018-12-04T11:19:05.291Z,10.30
2018-12-04T11:21:39.786Z,10.00
2018-12-04T11:24:10.997Z,10.00
2018-12-04T11:26:45.217Z,10.00
2018-12-04T11:29:16.593Z,9.90
2018-12-04T11:31:50.880Z,9.90
2018-12-04T11:34:22.514Z,9.80
2018-12-04T11:36:54.239Z,9.80
2018-12-04T11:39:26.259Z,10.20
2018-12-04T11:42:00.782Z,10.30
2018-12-04T11:44:29.673Z,10.30
2018-12-04T11:46:59.691Z,10.40
2018-12-04T11:52:33.798Z,10.20
2018-12-04T11:55:01.874Z,10.40
2018-12-04T11:57:30.029Z,10.20
2018-12-04T12:00:08.520Z,10.30
2018-12-04T12:02:40.526Z,10.30
2018-12-04T12:05:31.542Z,10.10
2018-12-04T12:08:00.715Z,10.00
2018-12-04T12:10:32.162Z,10.10
2018-12-04T12:13:04.138Z,10.30
2018-12-04T12:15:38.603Z,10.90
2018-12-04T12:18:08.335Z,11.20
2018-12-04T12:20:41.479Z,11.60
2018-12-04T12:23:10.644Z,11.30
2018-12-04T12:25:41.834Z,11.00
2018-12-04T12:28:16.270Z,11.40
2018-12-04T12:30:49.894Z,11.30
2018-12-04T12:36:23.862Z,11.00
2018-12-04T12:38:59.064Z,10.60
2018-12-04T12:41:30.842Z,10.60
2018-12-04T12:43:59.153Z,10.50
2018-12-04T12:46:27.322Z,10.40
2018-12-04T12:48:55.412Z,9.90
2018-12-04T12:51:23.796Z,10.40
2018-12-04T12:53:58.008Z,10.60
2018-12-04T12:56:26.152Z,10.60
2018-12-04T12:58:54.295Z,10.20
2018-12-04T13:01:22.394Z,10.40
2018-12-04T13:03:50.614Z,10.50
2018-12-04T13:06:18.808Z,10.60
2018-12-04T13:08:46.971Z,10.00
2018-12-04T13:11:15.926Z,10.60
2018-12-04T13:13:44.081Z,11.00
2018-12-04T13:16:12.264Z,11.40
2018-12-04T13:21:18.286Z,12.60
2018-12-04T13:23:46.455Z,13.00
2018-12-04T13:26:19.605Z,12.90
2018-12-04T13:28:47.720Z,12.80
2018-12-04T13:31:15.904Z,12.30
2018-12-04T13:33:44.083Z,11.90
2018-12-04T13:36:12.228Z,11.70
2018-12-04T13:41:40.277Z,11.30
2018-12-04T13:44:08.463Z,11.10
2018-12-04T13:46:36.670Z,10.90
2018-12-04T13:49:05.098Z,10.80
2018-12-04T13:51:33.285Z,10.60
2018-12-04T13:54:01.390Z,10.30
2018-12-04T13:56:29.605Z,10.00
2018-12-04T13:58:57.791Z,9.90
2018-12-04T14:01:26.131Z,9.90
2018-12-04T14:03:54.301Z,10.00
2018-12-04T14:06:22.442Z,10.50
2018-12-04T14:08:50.685Z,10.40
2018-12-04T14:11:18.840Z,10.10
2018-12-04T14:13:47.096Z,10.40
2018-12-04T14:16:15.313Z,10.50
2018-12-04T14:18:43.559Z,10.60
2018-12-04T14:21:12.506Z,10.60
2018-12-04T14:23:41.290Z,10.20
2018-12-04T14:26:09.455Z,10.30
2018-12-04T14:28:37.630Z,10.80
2018-12-04T14:31:05.921Z,10.50
2018-12-04T14:33:34.152Z,10.60
2018-12-04T14:36:06.236Z,10.50
2018-12-04T14:38:53.140Z,10.40
2018-12-04T14:41:22.486Z,10.30
2018-12-04T14:43:53.914Z,9.50
2018-12-04T14:46:22.197Z,9.80
2018-12-04T14:49:13.691Z,9.10
2018-12-04T14:51:41.873Z,9.50
2018-12-04T14:54:10.120Z,9.10
2018-12-04T14:56:38.384Z,9.10
2018-12-04T14:59:06.742Z,9.00
2018-12-04T15:01:35.005Z,8.80
2018-12-04T15:04:03.161Z,8.70
2018-12-04T15:06:31.321Z,8.60
2018-12-04T15:08:59.966Z,8.50
2018-12-04T15:11:28.137Z,8.40
2018-12-04T15:13:56.343Z,7.80
2018-12-04T15:16:24.589Z,7.70
2018-12-04T15:18:52.873Z,7.80
2018-12-04T15:21:20.987Z,7.70
2018-12-04T15:23:49.104Z,7.50
2018-12-04T15:26:17.238Z,7.40
2018-12-04T15:28:46.000Z,7.20
2018-12-04T15:31:14.247Z,7.10
2018-12-04T15:33:42.410Z,7.10
2018-12-04T15:36:10.620Z,6.40
2018-12-04T15:38:38.756Z,6.90
2018-12-04T15:41:07.045Z,6.40
2018-12-04T15:43:35.233Z,6.70
2018-12-04T15:46:03.581Z,6.60
2018-12-04T15:48:31.944Z,6.60
2018-12-04T15:51:00.349Z,6.50
2018-12-04T15:53:28.544Z,6.50
2018-12-04T15:55:56.892Z,6.40
2018-12-04T15:58:25.067Z,5.90
2018-12-04T16:00:53.379Z,6.20
2018-12-04T16:03:21.444Z,6.10
2018-12-04T16:05:49.622Z,6.10
2018-12-04T16:08:18.819Z,5.60
2018-12-04T16:10:46.910Z,6.00
2018-12-04T16:13:16.708Z,5.90
2018-12-04T16:15:45.297Z,5.80
2018-12-04T16:18:13.428Z,5.80
2018-12-04T16:20:41.736Z,5.70
2018-12-04T16:23:09.843Z,5.70
2018-12-04T16:25:38.052Z,5.60
2018-12-04T16:28:06.239Z,5.50
2018-12-04T16:30:34.438Z,5.50
2018-12-04T16:33:02.681Z,5.20
2018-12-04T16:35:30.905Z,5.40
2018-12-04T16:38:04.256Z,5.30
2018-12-04T16:40:32.487Z,5.20
2018-12-04T16:43:00.670Z,5.20
2018-12-04T16:45:29.691Z,5.20
2018-12-04T16:47:58.307Z,4.50
2018-12-04T16:50:27.178Z,5.10
2018-12-04T16:52:55.433Z,4.50
2018-12-04T16:55:23.658Z,5.00
2018-12-04T16:57:51.751Z,4.90
2018-12-04T17:00:20.010Z,4.90
2018-12-04T17:02:48.113Z,4.90
2018-12-04T17:05:16.276Z,4.80
2018-12-04T17:07:44.703Z,4.70
2018-12-04T17:10:13.369Z,4.60
2018-12-04T17:12:41.618Z,4.60
2018-12-04T17:15:11.229Z,4.60
2018-12-04T17:17:39.414Z,4.30
2018-12-04T17:20:08.603Z,4.50
2018-12-04T17:22:36.687Z,4.40
2018-12-04T17:25:05.143Z,4.30
2018-12-04T17:27:33.342Z,4.30
2018-12-04T17:30:02.248Z,4.20
2018-12-04T17:32:31.046Z,4.20
2018-12-04T17:34:59.263Z,4.20
2018-12-04T17:37:27.566Z,4.20
2018-12-04T17:39:55.707Z,4.10
2018-12-04T17:42:23.897Z,4.10
2018-12-04T17:44:52.161Z,4.00
2018-12-04T17:47:20.277Z,4.00
2018-12-04T17:49:48.543Z,3.90
2018-12-04T17:52:16.686Z,3.90
2018-12-04T17:54:44.834Z,3.70
2018-12-04T17:57:14.439Z,3.70
2018-12-04T17:59:43.074Z,3.50
2018-12-04T18:02:11.277Z,3.30
2018-12-04T18:04:39.401Z,3.30
2018-12-04T18:07:13.289Z,3.20
2018-12-04T18:09:47.785Z,3.20
2018-12-04T18:12:15.899Z,3.20
2018-12-04T18:14:44.194Z,3.20
2018-12-04T18:17:12.278Z,2.70
2018-12-04T18:19:40.423Z,3.30
2018-12-04T18:22:08.538Z,3.30
2018-12-04T18:24:36.642Z,3.30
2018-12-04T18:27:04.871Z,3.20
2018-12-04T18:29:33.014Z,3.10
2018-12-04T18:32:01.769Z,3.10
2018-12-04T18:34:30.888Z,3.10
2018-12-04T18:36:59.147Z,3.20
2018-12-04T18:39:27.351Z,3.30
2018-12-04T18:42:00.522Z,3.30
2018-12-04T18:44:32.454Z,3.20
2018-12-04T18:47:00.548Z,3.20
2018-12-04T18:49:29.500Z,3.20
2018-12-04T18:51:59.318Z,3.20
2018-12-04T18:54:27.935Z,3.20
2018-12-04T18:57:01.993Z,3.10
2018-12-04T18:59:30.169Z,2.90
2018-12-04T19:02:01.567Z,2.90
2018-12-04T19:04:29.731Z,3.00
2018-12-04T19:06:58.110Z,2.90
2018-12-04T19:09:26.327Z,2.90
2018-12-04T19:11:56.299Z,2.90
2018-12-04T19:14:26.221Z,2.90
2018-12-04T19:16:54.489Z,2.60
2018-12-04T19:19:22.889Z,2.90
2018-12-04T19:21:50.981Z,2.90
2018-12-04T19:24:19.120Z,2.80
2018-12-04T19:26:47.285Z,2.80
2018-12-04T19:29:15.490Z,2.80
2018-12-04T19:31:45.026Z,2.80
2018-12-04T19:34:13.641Z,2.80
2018-12-04T19:36:41.992Z,2.80
2018-12-04T19:39:10.219Z,2.80
2018-12-04T19:41:38.418Z,2.70
2018-12-04T19:44:06.814Z,2.60
2018-12-04T19:46:35.470Z,2.60
2018-12-04T19:49:03.771Z,2.60
2018-12-04T19:51:32.258Z,2.60
2018-12-04T19:54:00.995Z,2.10
2018-12-04T19:56:29.221Z,2.50
2018-12-04T19:58:57.542Z,2.50
2018-12-04T20:01:25.931Z,2.30
2018-12-04T20:03:54.184Z,2.40
2018-12-04T20:06:22.577Z,2.50
2018-12-04T20:08:52.212Z,2.30
2018-12-04T20:11:20.616Z,2.30
2018-12-04T20:13:48.796Z,2.20
2018-12-04T20:16:17.079Z,2.30
2018-12-04T20:18:45.207Z,2.30
2018-12-04T20:21:13.622Z,2.50
2018-12-04T20:23:41.949Z,2.20
2018-12-04T20:26:10.115Z,2.10
2018-12-04T20:28:43.580Z,2.10
2018-12-04T20:31:11.840Z,2.10
2018-12-04T20:33:41.182Z,2.00
2018-12-04T20:36:10.930Z,1.50
2018-12-04T20:38:40.036Z,2.00
2018-12-04T20:41:08.254Z,1.90
2018-12-04T20:43:36.452Z,1.90
2018-12-04T20:46:06.117Z,1.90
2018-12-04T20:48:34.600Z,2.10
2018-12-04T20:51:02.812Z,1.70
2018-12-04T20:53:30.970Z,1.90
2018-12-04T20:55:59.166Z,1.90
2018-12-04T20:58:27.322Z,1.90
2018-12-04T21:00:55.578Z,1.80
2018-12-04T21:03:23.697Z,1.80
2018-12-04T21:05:51.902Z,1.80
2018-12-04T21:08:40.252Z,1.40
2018-12-04T21:11:08.442Z,1.80
2018-12-04T21:13:37.443Z,1.30
2018-12-04T21:16:05.843Z,1.40
2018-12-04T21:18:33.959Z,1.80
2018-12-04T21:21:02.174Z,1.70
2018-12-04T21:23:30.346Z,1.70
2018-12-04T21:25:58.476Z,1.80
2018-12-04T21:28:26.645Z,1.70
2018-12-04T21:31:00.504Z,1.70
2018-12-04T21:35:37.804Z,1.70
2018-12-04T21:40:17.504Z,1.70
2018-12-04T21:42:51.232Z,1.80
2018-12-04T21:45:25.046Z,1.40
2018-12-04T21:50:54.075Z,1.30
2018-12-04T21:53:22.340Z,1.20
2018-12-04T21:55:50.442Z,1.20
2018-12-04T21:58:19.637Z,1.20
2018-12-04T22:00:48.019Z,1.20
2018-12-04T22:03:16.181Z,1.30
2018-12-04T22:05:44.290Z,1.20
2018-12-04T22:08:12.444Z,1.20
2018-12-04T22:10:40.597Z,1.30
2018-12-04T22:13:08.709Z,1.40
2018-12-04T22:15:36.925Z,1.80
2018-12-04T22:18:05.153Z,1.20
2018-12-04T22:20:33.859Z,1.10
2018-12-04T22:23:02.087Z,1.10
2018-12-04T22:25:30.291Z,1.10
2018-12-04T22:27:58.534Z,0.90
2018-12-04T22:30:28.177Z,1.20
2018-12-04T22:32:56.350Z,1.80
2018-12-04T22:35:24.667Z,1.20
2018-12-04T22:37:54.555Z,1.20
2018-12-04T22:40:22.727Z,1.20
2018-12-04T22:42:50.892Z,1.10
2018-12-04T22:45:25.235Z,1.10
2018-12-04T22:47:54.745Z,1.10
2018-12-04T22:50:24.054Z,1.10
2018-12-04T22:52:52.276Z,0.90
2018-12-04T22:55:20.452Z,0.80
2018-12-04T22:57:48.902Z,0.80
2018-12-04T23:00:28.513Z,0.80
2018-12-04T23:02:56.849Z,0.90
2018-12-04T23:05:24.988Z,0.30
2018-12-04T23:07:54.171Z,0.90
2018-12-04T23:10:22.328Z,1.00
2018-12-04T23:12:50.494Z,1.10
2018-12-04T23:15:18.641Z,1.10
2018-12-04T23:17:48.100Z,0.70
2018-12-04T23:20:16.311Z,1.20
2018-12-04T23:22:44.409Z,1.20
2018-12-04T23:25:14.594Z,1.90
2018-12-04T23:27:43.193Z,1.10
2018-12-04T23:30:11.640Z,1.70
2018-12-04T23:32:39.742Z,0.80
2018-12-04T23:35:08.120Z,1.40
2018-12-04T23:37:36.200Z,1.40
2018-12-04T23:40:05.093Z,1.20
2018-12-04T23:42:33.135Z,1.40
2018-12-04T23:45:01.252Z,1.60
2018-12-04T23:47:29.481Z,1.70
2018-12-04T23:49:57.692Z,1.80
2018-12-04T23:52:25.857Z,1.70
2018-12-04T23:54:54.102Z,1.50
2018-12-04T23:57:22.291Z,1.70
2018-12-04T23:59:51.335Z,1.50
